KAVP/AVP METAR and TAF weather

Enter ICAO airport designator
Station Type Date Time Source
KAVP METAR 2021/09/23 16:54 UTC NOAA

KAVP 231654Z 00000KT 1SM R04/P6000FT +RA BR BKN004 BKN015 OVC026 17/16 A2984 RMK AO2 PRESFR SLP098 P0046 T01670161


Station Type Date Time Source
KAVP Decoded METAR 2021/09/23 16:54 UTC NOAA

WILKES-BARRE/SCRANTON INTERNATIONAL , PA, United States (KAVP) 41-20N 75-44W 291M
Sep 23, 2021 - 12:54 PM EDT / 2021.09.23 1654 UTC
Wind: Calm:0
Visibility: 1 mile(s):0
Sky conditions: overcast
Weather: heavy rain; mist
Precipitation last hour: 0.46 inches
Temperature: 62.1 F (16.7 C)
Dew Point: 61.0 F (16.1 C)
Relative Humidity: 96%
Pressure (altimeter): 29.84 in. Hg (1010 hPa)
Pressure tendency: falling rapidly
ob: KAVP 231654Z 00000KT 1SM R04/P6000FT +RA BR BKN004 BKN015 OVC026 17/16 A2984 RMK AO2 PRESFR SLP098 P0046 T01670161
cycle: 17

Station Type Date Time Source
KAVP TAF 2021/09/23 16:39 UTC NOAA

TAF
AMD KAVP 231536Z 2316/2412 16011G20KT 2SM +RA BR BKN035
FM231800 19010KT 3SM SHRA BR OVC010
FM232300 23005KT 5SM RA BKN025
FM240000 24005KT 6SM BR BKN022
FM240400 25006G11KT P6SM SCT050

Example: see airport list